sensor_id;sensor_type;location;lat;lon;timestamp;temperature;humidity
4813;DHT22;2420;51.202;8.698;2023-09-07T00:01:30;16.10;1.00
4813;DHT22;2420;51.202;8.698;2023-09-07T00:03:55;16.10;1.00
4813;DHT22;2420;51.202;8.698;2023-09-07T00:06:21;16.10;1.00
4813;DHT22;2420;51.202;8.698;2023-09-07T00:08:47;16.10;1.00
4813;DHT22;2420;51.202;8.698;2023-09-07T00:11:12;16.10;1.00
4813;DHT22;2420;51.202;8.698;2023-09-07T00:13:38;16.10;1.00
4813;DHT22;2420;51.202;8.698;2023-09-07T00:16:04;16.20;1.00
4813;DHT22;2420;51.202;8.698;2023-09-07T00:18:31;16.10;1.00
4813;DHT22;2420;51.202;8.698;2023-09-07T00:20:58;16.20;1.00
4813;DHT22;2420;51.202;8.698;2023-09-07T00:23:23;16.20;1.00
4813;DHT22;2420;51.202;8.698;2023-09-07T00:25:49;16.10;1.00
4813;DHT22;2420;51.202;8.698;2023-09-07T00:28:14;16.00;1.00
4813;DHT22;2420;51.202;8.698;2023-09-07T00:30:40;16.00;1.00
4813;DHT22;2420;51.202;8.698;2023-09-07T00:33:07;16.00;1.00
4813;DHT22;2420;51.202;8.698;2023-09-07T00:35:33;15.90;1.00
4813;DHT22;2420;51.202;8.698;2023-09-07T00:37:59;15.90;1.00
4813;DHT22;2420;51.202;8.698;2023-09-07T00:40:25;15.80;1.00
4813;DHT22;2420;51.202;8.698;2023-09-07T00:42:51;15.70;1.00
4813;DHT22;2420;51.202;8.698;2023-09-07T00:45:17;15.60;1.00
4813;DHT22;2420;51.202;8.698;2023-09-07T00:47:42;15.70;1.00
4813;DHT22;2420;51.202;8.698;2023-09-07T00:50:08;15.70;1.00
4813;DHT22;2420;51.202;8.698;2023-09-07T00:52:35;15.60;1.00
4813;DHT22;2420;51.202;8.698;2023-09-07T00:55:02;15.60;1.00
4813;DHT22;2420;51.202;8.698;2023-09-07T00:57:29;15.60;1.00
4813;DHT22;2420;51.202;8.698;2023-09-07T00:59:55;15.60;1.00
4813;DHT22;2420;51.202;8.698;2023-09-07T01:02:20;15.50;1.00
4813;DHT22;2420;51.202;8.698;2023-09-07T01:04:46;15.50;1.00
4813;DHT22;2420;51.202;8.698;2023-09-07T01:07:20;15.40;1.00
4813;DHT22;2420;51.202;8.698;2023-09-07T01:09:50;15.40;1.00
4813;DHT22;2420;51.202;8.698;2023-09-07T01:12:16;15.40;1.00
4813;DHT22;2420;51.202;8.698;2023-09-07T01:14:42;15.40;1.00
4813;DHT22;2420;51.202;8.698;2023-09-07T01:17:09;15.40;1.00
4813;DHT22;2420;51.202;8.698;2023-09-07T01:19:35;15.30;1.00
4813;DHT22;2420;51.202;8.698;2023-09-07T01:22:01;15.30;1.00
4813;DHT22;2420;51.202;8.698;2023-09-07T01:24:28;15.30;1.00
4813;DHT22;2420;51.202;8.698;2023-09-07T01:26:59;15.30;1.00
4813;DHT22;2420;51.202;8.698;2023-09-07T01:29:25;15.20;1.00
4813;DHT22;2420;51.202;8.698;2023-09-07T01:31:54;15.20;1.00
4813;DHT22;2420;51.202;8.698;2023-09-07T01:34:20;15.20;1.00
4813;DHT22;2420;51.202;8.698;2023-09-07T01:36:46;15.10;1.00
4813;DHT22;2420;51.202;8.698;2023-09-07T01:39:12;15.20;1.00
4813;DHT22;2420;51.202;8.698;2023-09-07T01:41:37;15.10;1.00
4813;DHT22;2420;51.202;8.698;2023-09-07T01:44:03;15.10;1.00
4813;DHT22;2420;51.202;8.698;2023-09-07T01:46:29;15.10;1.00
4813;DHT22;2420;51.202;8.698;2023-09-07T01:48:54;15.10;1.00
4813;DHT22;2420;51.202;8.698;2023-09-07T01:51:20;15.10;1.00
4813;DHT22;2420;51.202;8.698;2023-09-07T01:53:49;15.00;1.00
4813;DHT22;2420;51.202;8.698;2023-09-07T01:56:16;15.00;1.00
4813;DHT22;2420;51.202;8.698;2023-09-07T01:58:42;15.00;1.00
4813;DHT22;2420;51.202;8.698;2023-09-07T02:01:24;15.00;1.00
4813;DHT22;2420;51.202;8.698;2023-09-07T02:03:50;15.00;1.00
4813;DHT22;2420;51.202;8.698;2023-09-07T02:06:16;15.00;1.00
4813;DHT22;2420;51.202;8.698;2023-09-07T02:08:41;14.90;1.00
4813;DHT22;2420;51.202;8.698;2023-09-07T02:11:07;14.90;1.00
4813;DHT22;2420;51.202;8.698;2023-09-07T02:13:32;14.80;1.00
4813;DHT22;2420;51.202;8.698;2023-09-07T02:15:58;14.70;1.00
4813;DHT22;2420;51.202;8.698;2023-09-07T02:18:23;14.70;1.00
4813;DHT22;2420;51.202;8.698;2023-09-07T02:20:49;14.70;1.00
4813;DHT22;2420;51.202;8.698;2023-09-07T02:23:14;14.70;1.00
4813;DHT22;2420;51.202;8.698;2023-09-07T02:25:41;14.60;1.00
4813;DHT22;2420;51.202;8.698;2023-09-07T02:28:06;14.70;1.00
4813;DHT22;2420;51.202;8.698;2023-09-07T02:30:32;14.60;1.00
4813;DHT22;2420;51.202;8.698;2023-09-07T02:32:57;14.70;1.00
4813;DHT22;2420;51.202;8.698;2023-09-07T02:35:23;14.60;1.00
4813;DHT22;2420;51.202;8.698;2023-09-07T02:37:48;14.60;1.00
4813;DHT22;2420;51.202;8.698;2023-09-07T02:40:14;14.50;1.00
4813;DHT22;2420;51.202;8.698;2023-09-07T02:42:41;14.50;1.00
4813;DHT22;2420;51.202;8.698;2023-09-07T02:45:10;14.50;1.00
4813;DHT22;2420;51.202;8.698;2023-09-07T02:47:36;14.50;1.00
4813;DHT22;2420;51.202;8.698;2023-09-07T02:50:02;14.50;1.00
4813;DHT22;2420;51.202;8.698;2023-09-07T02:52:28;14.50;1.00
4813;DHT22;2420;51.202;8.698;2023-09-07T02:54:53;14.40;1.00
4813;DHT22;2420;51.202;8.698;2023-09-07T02:57:19;14.30;1.00
4813;DHT22;2420;51.202;8.698;2023-09-07T02:59:44;14.40;1.00
4813;DHT22;2420;51.202;8.698;2023-09-07T03:02:10;14.40;1.00
4813;DHT22;2420;51.202;8.698;2023-09-07T03:04:35;14.40;1.00
4813;DHT22;2420;51.202;8.698;2023-09-07T03:07:01;14.40;1.00
4813;DHT22;2420;51.202;8.698;2023-09-07T03:09:27;14.30;1.00
4813;DHT22;2420;51.202;8.698;2023-09-07T03:11:53;14.30;1.00
4813;DHT22;2420;51.202;8.698;2023-09-07T03:14:18;14.30;1.00
4813;DHT22;2420;51.202;8.698;2023-09-07T03:16:44;14.20;1.00
4813;DHT22;2420;51.202;8.698;2023-09-07T03:19:09;14.20;1.00
4813;DHT22;2420;51.202;8.698;2023-09-07T03:21:35;14.20;1.00
4813;DHT22;2420;51.202;8.698;2023-09-07T03:24:00;14.10;1.00
4813;DHT22;2420;51.202;8.698;2023-09-07T03:26:26;14.20;1.00
4813;DHT22;2420;51.202;8.698;2023-09-07T03:28:51;14.10;1.00
4813;DHT22;2420;51.202;8.698;2023-09-07T03:31:17;14.20;1.00
4813;DHT22;2420;51.202;8.698;2023-09-07T03:33:43;14.20;1.00
4813;DHT22;2420;51.202;8.698;2023-09-07T03:36:08;14.20;1.00
4813;DHT22;2420;51.202;8.698;2023-09-07T03:38:35;14.20;1.00
4813;DHT22;2420;51.202;8.698;2023-09-07T03:41:01;14.20;1.00
4813;DHT22;2420;51.202;8.698;2023-09-07T03:43:27;14.20;1.00
4813;DHT22;2420;51.202;8.698;2023-09-07T03:45:52;14.20;1.00
4813;DHT22;2420;51.202;8.698;2023-09-07T03:48:18;14.30;1.00
4813;DHT22;2420;51.202;8.698;2023-09-07T03:50:44;14.30;1.00
4813;DHT22;2420;51.202;8.698;2023-09-07T03:53:10;14.30;1.00
4813;DHT22;2420;51.202;8.698;2023-09-07T03:55:42;14.30;1.00
4813;DHT22;2420;51.202;8.698;2023-09-07T03:58:09;14.40;1.00
4813;DHT22;2420;51.202;8.698;2023-09-07T04:00:38;14.30;1.00
4813;DHT22;2420;51.202;8.698;2023-09-07T04:03:05;14.30;1.00
4813;DHT22;2420;51.202;8.698;2023-09-07T04:05:31;14.30;1.00
4813;DHT22;2420;51.202;8.698;2023-09-07T04:07:56;14.30;1.00
4813;DHT22;2420;51.202;8.698;2023-09-07T04:10:22;14.20;1.00
4813;DHT22;2420;51.202;8.698;2023-09-07T04:12:48;14.20;1.00
4813;DHT22;2420;51.202;8.698;2023-09-07T04:15:14;14.20;1.00
4813;DHT22;2420;51.202;8.698;2023-09-07T04:17:39;14.20;1.00
4813;DHT22;2420;51.202;8.698;2023-09-07T04:20:07;14.20;1.00
4813;DHT22;2420;51.202;8.698;2023-09-07T04:22:33;14.20;1.00
4813;DHT22;2420;51.202;8.698;2023-09-07T04:24:58;14.20;1.00
4813;DHT22;2420;51.202;8.698;2023-09-07T04:27:24;14.10;1.00
4813;DHT22;2420;51.202;8.698;2023-09-07T04:29:49;14.20;1.00
4813;DHT22;2420;51.202;8.698;2023-09-07T04:32:15;14.10;1.00
4813;DHT22;2420;51.202;8.698;2023-09-07T04:34:41;14.10;1.00
4813;DHT22;2420;51.202;8.698;2023-09-07T04:37:06;14.20;1.00
4813;DHT22;2420;51.202;8.698;2023-09-07T04:39:32;14.10;1.00
4813;DHT22;2420;51.202;8.698;2023-09-07T04:41:57;14.10;1.00
4813;DHT22;2420;51.202;8.698;2023-09-07T04:44:23;14.10;1.00
4813;DHT22;2420;51.202;8.698;2023-09-07T04:46:48;14.10;1.00
4813;DHT22;2420;51.202;8.698;2023-09-07T04:49:15;14.10;1.00
4813;DHT22;2420;51.202;8.698;2023-09-07T04:51:40;14.10;1.00
4813;DHT22;2420;51.202;8.698;2023-09-07T04:54:06;14.20;1.00
4813;DHT22;2420;51.202;8.698;2023-09-07T04:56:32;14.20;1.00
4813;DHT22;2420;51.202;8.698;2023-09-07T04:58:57;14.10;1.00
4813;DHT22;2420;51.202;8.698;2023-09-07T05:01:23;14.10;1.00
4813;DHT22;2420;51.202;8.698;2023-09-07T05:03:49;14.10;1.00
4813;DHT22;2420;51.202;8.698;2023-09-07T05:06:16;14.10;1.00
4813;DHT22;2420;51.202;8.698;2023-09-07T05:08:42;14.10;1.00
4813;DHT22;2420;51.202;8.698;2023-09-07T05:11:07;14.20;1.00
4813;DHT22;2420;51.202;8.698;2023-09-07T05:13:33;14.20;1.00
4813;DHT22;2420;51.202;8.698;2023-09-07T05:15:59;14.10;1.00
4813;DHT22;2420;51.202;8.698;2023-09-07T05:18:30;14.20;1.00
4813;DHT22;2420;51.202;8.698;2023-09-07T05:20:55;14.10;1.00
4813;DHT22;2420;51.202;8.698;2023-09-07T05:23:22;14.10;1.00
4813;DHT22;2420;51.202;8.698;2023-09-07T05:25:50;14.10;1.00
4813;DHT22;2420;51.202;8.698;2023-09-07T05:28:18;14.20;1.00
4813;DHT22;2420;51.202;8.698;2023-09-07T05:30:44;14.20;1.00
4813;DHT22;2420;51.202;8.698;2023-09-07T05:33:10;14.30;1.00
4813;DHT22;2420;51.202;8.698;2023-09-07T05:35:36;14.30;1.00
4813;DHT22;2420;51.202;8.698;2023-09-07T05:38:03;14.30;1.00
4813;DHT22;2420;51.202;8.698;2023-09-07T05:40:29;14.40;1.00
4813;DHT22;2420;51.202;8.698;2023-09-07T05:42:54;14.30;1.00
4813;DHT22;2420;51.202;8.698;2023-09-07T05:45:20;14.40;1.00
4813;DHT22;2420;51.202;8.698;2023-09-07T05:47:46;14.40;1.00
4813;DHT22;2420;51.202;8.698;2023-09-07T05:50:11;14.30;1.00
4813;DHT22;2420;51.202;8.698;2023-09-07T05:52:37;14.40;1.00
4813;DHT22;2420;51.202;8.698;2023-09-07T05:55:03;14.40;1.00
4813;DHT22;2420;51.202;8.698;2023-09-07T05:57:28;14.40;1.00
4813;DHT22;2420;51.202;8.698;2023-09-07T05:59:54;14.40;1.00
4813;DHT22;2420;51.202;8.698;2023-09-07T06:02:20;14.50;1.00
4813;DHT22;2420;51.202;8.698;2023-09-07T06:04:46;14.50;1.00
4813;DHT22;2420;51.202;8.698;2023-09-07T06:07:11;14.60;1.00
4813;DHT22;2420;51.202;8.698;2023-09-07T06:09:37;14.60;1.00
4813;DHT22;2420;51.202;8.698;2023-09-07T06:12:03;14.70;1.00
4813;DHT22;2420;51.202;8.698;2023-09-07T06:14:28;14.70;1.00
4813;DHT22;2420;51.202;8.698;2023-09-07T06:16:54;14.70;1.00
4813;DHT22;2420;51.202;8.698;2023-09-07T06:19:19;14.80;1.00
4813;DHT22;2420;51.202;8.698;2023-09-07T06:21:45;14.90;1.00
4813;DHT22;2420;51.202;8.698;2023-09-07T06:24:11;14.90;1.00
4813;DHT22;2420;51.202;8.698;2023-09-07T06:26:36;15.00;1.00
4813;DHT22;2420;51.202;8.698;2023-09-07T06:29:02;15.10;1.00
4813;DHT22;2420;51.202;8.698;2023-09-07T06:31:27;15.10;1.00
4813;DHT22;2420;51.202;8.698;2023-09-07T06:33:54;15.20;1.00
4813;DHT22;2420;51.202;8.698;2023-09-07T06:36:19;15.30;1.00
4813;DHT22;2420;51.202;8.698;2023-09-07T06:38:45;15.40;1.00
4813;DHT22;2420;51.202;8.698;2023-09-07T06:41:10;15.50;1.00
4813;DHT22;2420;51.202;8.698;2023-09-07T06:43:37;15.60;1.00
4813;DHT22;2420;51.202;8.698;2023-09-07T06:46:06;15.70;1.00
4813;DHT22;2420;51.202;8.698;2023-09-07T06:48:33;15.80;1.00
4813;DHT22;2420;51.202;8.698;2023-09-07T06:51:02;16.00;1.00
4813;DHT22;2420;51.202;8.698;2023-09-07T06:53:29;16.20;1.00
4813;DHT22;2420;51.202;8.698;2023-09-07T06:55:59;16.30;1.00
4813;DHT22;2420;51.202;8.698;2023-09-07T06:58:24;16.50;1.00
4813;DHT22;2420;51.202;8.698;2023-09-07T07:00:50;16.70;1.00
4813;DHT22;2420;51.202;8.698;2023-09-07T07:03:15;16.90;1.00
4813;DHT22;2420;51.202;8.698;2023-09-07T07:05:41;17.30;1.00
4813;DHT22;2420;51.202;8.698;2023-09-07T07:08:07;17.30;1.00
4813;DHT22;2420;51.202;8.698;2023-09-07T07:10:33;17.40;1.00
4813;DHT22;2420;51.202;8.698;2023-09-07T07:12:58;17.70;1.00
4813;DHT22;2420;51.202;8.698;2023-09-07T07:15:25;17.90;1.00
4813;DHT22;2420;51.202;8.698;2023-09-07T07:17:51;18.00;1.00
4813;DHT22;2420;51.202;8.698;2023-09-07T07:20:17;18.10;1.00
4813;DHT22;2420;51.202;8.698;2023-09-07T07:22:42;18.20;1.00
4813;DHT22;2420;51.202;8.698;2023-09-07T07:25:08;18.30;1.00
4813;DHT22;2420;51.202;8.698;2023-09-07T07:27:33;18.50;1.00
4813;DHT22;2420;51.202;8.698;2023-09-07T07:29:59;18.50;1.00
4813;DHT22;2420;51.202;8.698;2023-09-07T07:32:25;18.60;1.00
4813;DHT22;2420;51.202;8.698;2023-09-07T07:34:50;18.70;1.00
4813;DHT22;2420;51.202;8.698;2023-09-07T07:37:16;18.70;1.00
4813;DHT22;2420;51.202;8.698;2023-09-07T07:39:41;18.80;1.00
4813;DHT22;2420;51.202;8.698;2023-09-07T07:42:07;18.80;1.00
4813;DHT22;2420;51.202;8.698;2023-09-07T07:44:32;19.00;1.00
4813;DHT22;2420;51.202;8.698;2023-09-07T07:46:58;19.00;1.00
4813;DHT22;2420;51.202;8.698;2023-09-07T07:49:23;19.10;1.00
4813;DHT22;2420;51.202;8.698;2023-09-07T07:51:49;19.20;1.00
4813;DHT22;2420;51.202;8.698;2023-09-07T07:54:15;19.30;1.00
4813;DHT22;2420;51.202;8.698;2023-09-07T07:56:41;19.40;1.00
4813;DHT22;2420;51.202;8.698;2023-09-07T07:59:07;19.40;1.00
4813;DHT22;2420;51.202;8.698;2023-09-07T08:01:32;19.50;1.00
4813;DHT22;2420;51.202;8.698;2023-09-07T08:03:58;19.50;1.00
4813;DHT22;2420;51.202;8.698;2023-09-07T08:06:24;19.60;1.00
4813;DHT22;2420;51.202;8.698;2023-09-07T08:08:49;19.80;1.00
4813;DHT22;2420;51.202;8.698;2023-09-07T08:11:15;19.80;1.00
4813;DHT22;2420;51.202;8.698;2023-09-07T08:13:40;20.00;1.00
4813;DHT22;2420;51.202;8.698;2023-09-07T08:16:06;20.00;1.00
4813;DHT22;2420;51.202;8.698;2023-09-07T08:18:35;20.00;1.00
4813;DHT22;2420;51.202;8.698;2023-09-07T08:21:01;20.20;1.00
4813;DHT22;2420;51.202;8.698;2023-09-07T08:23:26;20.20;1.00
4813;DHT22;2420;51.202;8.698;2023-09-07T08:25:52;20.40;1.00
4813;DHT22;2420;51.202;8.698;2023-09-07T08:28:18;20.50;1.00
4813;DHT22;2420;51.202;8.698;2023-09-07T08:30:45;20.60;1.00
4813;DHT22;2420;51.202;8.698;2023-09-07T08:33:10;20.90;1.00
4813;DHT22;2420;51.202;8.698;2023-09-07T08:35:36;21.00;1.00
4813;DHT22;2420;51.202;8.698;2023-09-07T08:38:12;21.00;1.00
4813;DHT22;2420;51.202;8.698;2023-09-07T08:40:38;21.00;1.00
4813;DHT22;2420;51.202;8.698;2023-09-07T08:43:08;21.30;1.00
4813;DHT22;2420;51.202;8.698;2023-09-07T08:45:45;21.40;1.00
4813;DHT22;2420;51.202;8.698;2023-09-07T08:48:13;21.40;1.00
4813;DHT22;2420;51.202;8.698;2023-09-07T08:50:43;21.40;1.00
4813;DHT22;2420;51.202;8.698;2023-09-07T08:53:16;21.50;1.00
4813;DHT22;2420;51.202;8.698;2023-09-07T08:55:42;21.50;1.00
4813;DHT22;2420;51.202;8.698;2023-09-07T08:58:07;21.50;1.00
4813;DHT22;2420;51.202;8.698;2023-09-07T09:00:33;21.60;1.00
4813;DHT22;2420;51.202;8.698;2023-09-07T09:02:59;21.80;1.00
4813;DHT22;2420;51.202;8.698;2023-09-07T09:05:28;21.90;1.00
4813;DHT22;2420;51.202;8.698;2023-09-07T09:08:03;22.00;1.00
4813;DHT22;2420;51.202;8.698;2023-09-07T09:10:29;22.00;1.00
4813;DHT22;2420;51.202;8.698;2023-09-07T09:12:55;22.10;1.00
4813;DHT22;2420;51.202;8.698;2023-09-07T09:15:22;22.30;1.00
4813;DHT22;2420;51.202;8.698;2023-09-07T09:17:47;22.50;1.00
4813;DHT22;2420;51.202;8.698;2023-09-07T09:20:24;22.50;1.00
4813;DHT22;2420;51.202;8.698;2023-09-07T09:22:53;22.50;1.00
4813;DHT22;2420;51.202;8.698;2023-09-07T09:25:20;22.70;1.00
4813;DHT22;2420;51.202;8.698;2023-09-07T09:27:46;22.80;1.00
4813;DHT22;2420;51.202;8.698;2023-09-07T09:30:12;22.80;1.00
4813;DHT22;2420;51.202;8.698;2023-09-07T09:32:40;23.10;1.00
4813;DHT22;2420;51.202;8.698;2023-09-07T09:35:07;23.20;1.00
4813;DHT22;2420;51.202;8.698;2023-09-07T09:37:33;23.20;1.00
4813;DHT22;2420;51.202;8.698;2023-09-07T09:40:00;23.20;1.00
4813;DHT22;2420;51.202;8.698;2023-09-07T09:42:27;23.40;1.00
4813;DHT22;2420;51.202;8.698;2023-09-07T09:44:53;23.50;1.00
4813;DHT22;2420;51.202;8.698;2023-09-07T09:47:21;23.60;1.00
4813;DHT22;2420;51.202;8.698;2023-09-07T09:49:48;23.70;1.00
4813;DHT22;2420;51.202;8.698;2023-09-07T09:52:15;23.70;1.00
4813;DHT22;2420;51.202;8.698;2023-09-07T09:54:42;23.90;1.00
4813;DHT22;2420;51.202;8.698;2023-09-07T09:57:08;24.00;1.00
4813;DHT22;2420;51.202;8.698;2023-09-07T09:59:34;23.90;1.00
4813;DHT22;2420;51.202;8.698;2023-09-07T10:02:01;24.00;1.00
4813;DHT22;2420;51.202;8.698;2023-09-07T10:04:28;24.00;1.00
4813;DHT22;2420;51.202;8.698;2023-09-07T10:07:00;24.20;1.00
4813;DHT22;2420;51.202;8.698;2023-09-07T10:09:33;24.20;1.00
4813;DHT22;2420;51.202;8.698;2023-09-07T10:11:59;24.40;1.00
4813;DHT22;2420;51.202;8.698;2023-09-07T10:14:25;24.60;1.00
4813;DHT22;2420;51.202;8.698;2023-09-07T10:16:52;24.60;1.00
4813;DHT22;2420;51.202;8.698;2023-09-07T10:19:22;24.80;1.00
4813;DHT22;2420;51.202;8.698;2023-09-07T10:21:48;24.90;1.00
4813;DHT22;2420;51.202;8.698;2023-09-07T10:24:28;25.00;1.00
4813;DHT22;2420;51.202;8.698;2023-09-07T10:27:07;25.00;1.00
4813;DHT22;2420;51.202;8.698;2023-09-07T10:29:46;25.10;1.00
4813;DHT22;2420;51.202;8.698;2023-09-07T10:32:13;25.20;1.00
4813;DHT22;2420;51.202;8.698;2023-09-07T10:34:40;25.20;1.00
4813;DHT22;2420;51.202;8.698;2023-09-07T10:37:13;25.30;1.00
4813;DHT22;2420;51.202;8.698;2023-09-07T10:39:40;25.30;1.00
4813;DHT22;2420;51.202;8.698;2023-09-07T10:42:08;25.20;1.00
4813;DHT22;2420;51.202;8.698;2023-09-07T10:44:34;25.20;1.00
4813;DHT22;2420;51.202;8.698;2023-09-07T10:47:00;25.40;1.00
4813;DHT22;2420;51.202;8.698;2023-09-07T10:49:25;25.50;1.00
4813;DHT22;2420;51.202;8.698;2023-09-07T10:51:51;25.60;1.00
4813;DHT22;2420;51.202;8.698;2023-09-07T10:54:18;25.70;1.00
4813;DHT22;2420;51.202;8.698;2023-09-07T10:56:45;25.70;1.00
4813;DHT22;2420;51.202;8.698;2023-09-07T10:59:14;25.70;1.00
4813;DHT22;2420;51.202;8.698;2023-09-07T11:01:40;25.60;1.00
4813;DHT22;2420;51.202;8.698;2023-09-07T11:04:06;25.70;1.00
4813;DHT22;2420;51.202;8.698;2023-09-07T11:06:34;25.80;1.00
4813;DHT22;2420;51.202;8.698;2023-09-07T11:09:01;25.80;1.00
4813;DHT22;2420;51.202;8.698;2023-09-07T11:11:33;25.80;1.00
4813;DHT22;2420;51.202;8.698;2023-09-07T11:13:59;25.80;1.00
4813;DHT22;2420;51.202;8.698;2023-09-07T11:16:25;25.90;1.00
4813;DHT22;2420;51.202;8.698;2023-09-07T11:18:53;26.00;1.00
4813;DHT22;2420;51.202;8.698;2023-09-07T11:21:20;26.00;1.00
4813;DHT22;2420;51.202;8.698;2023-09-07T11:23:46;26.00;1.00
4813;DHT22;2420;51.202;8.698;2023-09-07T11:26:11;26.10;1.00
4813;DHT22;2420;51.202;8.698;2023-09-07T11:28:38;26.20;1.00
4813;DHT22;2420;51.202;8.698;2023-09-07T11:31:03;26.30;1.00
4813;DHT22;2420;51.202;8.698;2023-09-07T11:33:32;26.40;1.00
4813;DHT22;2420;51.202;8.698;2023-09-07T11:35:58;26.40;1.00
4813;DHT22;2420;51.202;8.698;2023-09-07T11:38:29;26.40;1.00
4813;DHT22;2420;51.202;8.698;2023-09-07T11:40:59;26.50;1.00
4813;DHT22;2420;51.202;8.698;2023-09-07T11:43:25;26.50;1.00
4813;DHT22;2420;51.202;8.698;2023-09-07T11:45:51;26.30;1.00
4813;DHT22;2420;51.202;8.698;2023-09-07T11:48:16;26.30;1.00
4813;DHT22;2420;51.202;8.698;2023-09-07T11:50:43;26.30;1.00
4813;DHT22;2420;51.202;8.698;2023-09-07T11:53:09;26.40;1.00
4813;DHT22;2420;51.202;8.698;2023-09-07T11:55:34;26.40;1.00
4813;DHT22;2420;51.202;8.698;2023-09-07T11:58:01;26.50;1.00
4813;DHT22;2420;51.202;8.698;2023-09-07T12:00:28;26.50;1.00
4813;DHT22;2420;51.202;8.698;2023-09-07T12:02:56;26.40;1.00
4813;DHT22;2420;51.202;8.698;2023-09-07T12:05:22;26.40;1.00
4813;DHT22;2420;51.202;8.698;2023-09-07T12:07:47;26.30;1.00
4813;DHT22;2420;51.202;8.698;2023-09-07T12:10:13;26.30;1.00
4813;DHT22;2420;51.202;8.698;2023-09-07T12:12:39;26.30;1.00
4813;DHT22;2420;51.202;8.698;2023-09-07T12:15:06;26.30;1.00
4813;DHT22;2420;51.202;8.698;2023-09-07T12:17:32;26.40;1.00
4813;DHT22;2420;51.202;8.698;2023-09-07T12:19:58;26.40;1.00
4813;DHT22;2420;51.202;8.698;2023-09-07T12:22:23;26.40;1.00
4813;DHT22;2420;51.202;8.698;2023-09-07T12:24:49;26.40;1.00
4813;DHT22;2420;51.202;8.698;2023-09-07T12:27:15;26.40;1.00
4813;DHT22;2420;51.202;8.698;2023-09-07T12:29:41;26.40;1.00
4813;DHT22;2420;51.202;8.698;2023-09-07T12:32:06;26.30;1.00
4813;DHT22;2420;51.202;8.698;2023-09-07T12:34:32;26.50;1.00
4813;DHT22;2420;51.202;8.698;2023-09-07T12:36:58;26.60;1.00
4813;DHT22;2420;51.202;8.698;2023-09-07T12:39:24;26.70;1.00
4813;DHT22;2420;51.202;8.698;2023-09-07T12:41:49;26.60;1.00
4813;DHT22;2420;51.202;8.698;2023-09-07T12:44:15;26.50;1.00
4813;DHT22;2420;51.202;8.698;2023-09-07T12:46:41;26.50;1.00
4813;DHT22;2420;51.202;8.698;2023-09-07T12:49:07;26.60;1.00
4813;DHT22;2420;51.202;8.698;2023-09-07T12:51:33;26.60;1.00
4813;DHT22;2420;51.202;8.698;2023-09-07T12:53:58;26.60;1.00
4813;DHT22;2420;51.202;8.698;2023-09-07T12:56:24;26.60;1.00
4813;DHT22;2420;51.202;8.698;2023-09-07T12:58:49;26.60;1.00
4813;DHT22;2420;51.202;8.698;2023-09-07T13:01:17;26.50;1.00
4813;DHT22;2420;51.202;8.698;2023-09-07T13:03:43;26.50;1.00
4813;DHT22;2420;51.202;8.698;2023-09-07T13:06:09;26.60;1.00
4813;DHT22;2420;51.202;8.698;2023-09-07T13:08:35;26.60;1.00
4813;DHT22;2420;51.202;8.698;2023-09-07T13:11:01;26.70;1.00
4813;DHT22;2420;51.202;8.698;2023-09-07T13:13:26;26.80;1.00
4813;DHT22;2420;51.202;8.698;2023-09-07T13:15:55;26.90;1.00
4813;DHT22;2420;51.202;8.698;2023-09-07T13:18:21;26.80;1.00
4813;DHT22;2420;51.202;8.698;2023-09-07T13:20:47;26.90;1.00
4813;DHT22;2420;51.202;8.698;2023-09-07T13:23:15;27.00;1.00
4813;DHT22;2420;51.202;8.698;2023-09-07T13:25:41;27.00;1.00
4813;DHT22;2420;51.202;8.698;2023-09-07T13:28:06;27.00;1.00
4813;DHT22;2420;51.202;8.698;2023-09-07T13:30:32;27.00;1.00
4813;DHT22;2420;51.202;8.698;2023-09-07T13:32:57;27.00;1.00
4813;DHT22;2420;51.202;8.698;2023-09-07T13:35:23;27.10;1.00
4813;DHT22;2420;51.202;8.698;2023-09-07T13:37:48;27.00;1.00
4813;DHT22;2420;51.202;8.698;2023-09-07T13:40:14;27.00;1.00
4813;DHT22;2420;51.202;8.698;2023-09-07T13:42:40;27.10;1.00
4813;DHT22;2420;51.202;8.698;2023-09-07T13:45:06;26.90;1.00
4813;DHT22;2420;51.202;8.698;2023-09-07T13:47:32;27.00;1.00
4813;DHT22;2420;51.202;8.698;2023-09-07T13:49:57;26.90;1.00
4813;DHT22;2420;51.202;8.698;2023-09-07T13:52:23;27.00;1.00
4813;DHT22;2420;51.202;8.698;2023-09-07T13:54:48;27.00;1.00
4813;DHT22;2420;51.202;8.698;2023-09-07T13:57:14;27.00;1.00
4813;DHT22;2420;51.202;8.698;2023-09-07T13:59:40;26.90;1.00
4813;DHT22;2420;51.202;8.698;2023-09-07T14:02:05;26.90;1.00
4813;DHT22;2420;51.202;8.698;2023-09-07T14:04:31;27.10;1.00
4813;DHT22;2420;51.202;8.698;2023-09-07T14:06:56;27.20;1.00
4813;DHT22;2420;51.202;8.698;2023-09-07T14:09:22;27.20;1.00
4813;DHT22;2420;51.202;8.698;2023-09-07T14:11:48;27.20;1.00
4813;DHT22;2420;51.202;8.698;2023-09-07T14:14:14;27.20;1.00
4813;DHT22;2420;51.202;8.698;2023-09-07T14:16:40;27.10;1.00
4813;DHT22;2420;51.202;8.698;2023-09-07T14:19:06;27.20;1.00
4813;DHT22;2420;51.202;8.698;2023-09-07T14:21:31;27.20;1.00
4813;DHT22;2420;51.202;8.698;2023-09-07T14:23:57;27.10;1.00
4813;DHT22;2420;51.202;8.698;2023-09-07T14:26:23;27.20;1.00
4813;DHT22;2420;51.202;8.698;2023-09-07T14:28:48;27.20;1.00
4813;DHT22;2420;51.202;8.698;2023-09-07T14:31:14;27.20;1.00
4813;DHT22;2420;51.202;8.698;2023-09-07T14:33:40;27.20;1.00
4813;DHT22;2420;51.202;8.698;2023-09-07T14:36:08;27.20;1.00
4813;DHT22;2420;51.202;8.698;2023-09-07T14:38:35;27.20;1.00
4813;DHT22;2420;51.202;8.698;2023-09-07T14:41:06;27.20;1.00
4813;DHT22;2420;51.202;8.698;2023-09-07T14:43:32;27.20;1.00
4813;DHT22;2420;51.202;8.698;2023-09-07T14:45:58;27.20;1.00
4813;DHT22;2420;51.202;8.698;2023-09-07T14:48:23;27.20;1.00
4813;DHT22;2420;51.202;8.698;2023-09-07T14:50:50;27.20;1.00
4813;DHT22;2420;51.202;8.698;2023-09-07T14:53:15;27.10;1.00
4813;DHT22;2420;51.202;8.698;2023-09-07T14:55:41;27.10;1.00
4813;DHT22;2420;51.202;8.698;2023-09-07T14:58:07;27.10;1.00
4813;DHT22;2420;51.202;8.698;2023-09-07T15:00:34;27.10;1.00
4813;DHT22;2420;51.202;8.698;2023-09-07T15:03:00;27.10;1.00
4813;DHT22;2420;51.202;8.698;2023-09-07T15:05:25;27.10;1.00
4813;DHT22;2420;51.202;8.698;2023-09-07T15:07:51;27.00;1.00
4813;DHT22;2420;51.202;8.698;2023-09-07T15:10:17;27.10;1.00
4813;DHT22;2420;51.202;8.698;2023-09-07T15:12:42;27.00;1.00
4813;DHT22;2420;51.202;8.698;2023-09-07T15:15:08;27.00;1.00
4813;DHT22;2420;51.202;8.698;2023-09-07T15:17:38;27.00;1.00
4813;DHT22;2420;51.202;8.698;2023-09-07T15:20:05;27.00;1.00
4813;DHT22;2420;51.202;8.698;2023-09-07T15:22:31;26.90;1.00
4813;DHT22;2420;51.202;8.698;2023-09-07T15:24:57;26.80;1.00
4813;DHT22;2420;51.202;8.698;2023-09-07T15:27:23;26.80;1.00
4813;DHT22;2420;51.202;8.698;2023-09-07T15:29:48;26.80;1.00
4813;DHT22;2420;51.202;8.698;2023-09-07T15:32:14;26.70;1.00
4813;DHT22;2420;51.202;8.698;2023-09-07T15:34:39;26.70;1.00
4813;DHT22;2420;51.202;8.698;2023-09-07T15:37:08;26.60;1.00
4813;DHT22;2420;51.202;8.698;2023-09-07T15:39:34;26.60;1.00
4813;DHT22;2420;51.202;8.698;2023-09-07T15:41:59;26.60;1.00
4813;DHT22;2420;51.202;8.698;2023-09-07T15:44:25;26.50;1.00
4813;DHT22;2420;51.202;8.698;2023-09-07T15:46:53;26.40;1.00
4813;DHT22;2420;51.202;8.698;2023-09-07T15:49:18;26.40;1.00
4813;DHT22;2420;51.202;8.698;2023-09-07T15:51:45;26.40;1.00
4813;DHT22;2420;51.202;8.698;2023-09-07T15:54:11;26.40;1.00
4813;DHT22;2420;51.202;8.698;2023-09-07T15:56:37;26.40;1.00
4813;DHT22;2420;51.202;8.698;2023-09-07T15:59:02;26.30;1.00
4813;DHT22;2420;51.202;8.698;2023-09-07T16:01:28;26.30;1.00
4813;DHT22;2420;51.202;8.698;2023-09-07T16:03:54;26.20;1.00
4813;DHT22;2420;51.202;8.698;2023-09-07T16:06:19;26.10;1.00
4813;DHT22;2420;51.202;8.698;2023-09-07T16:08:45;26.10;1.00
4813;DHT22;2420;51.202;8.698;2023-09-07T16:11:10;26.10;1.00